createdAt,value
2019-02-04T00:00:16.517Z,1019.49
2019-02-04T00:02:09.497Z,1019.44
2019-02-04T00:03:09.543Z,1019.45
2019-02-04T00:05:02.521Z,1019.47
2019-02-04T00:06:02.613Z,1019.44
2019-02-04T00:07:55.536Z,1019.47
2019-02-04T00:08:55.595Z,1019.50
2019-02-04T00:10:48.582Z,1019.49
2019-02-04T00:11:48.616Z,1019.49
2019-02-04T00:13:41.597Z,1019.49
2019-02-04T00:14:41.674Z,1019.45
2019-02-04T00:16:40.771Z,1019.47
2019-02-04T00:17:34.692Z,1019.47
2019-02-04T00:19:27.662Z,1019.53
2019-02-04T00:20:27.714Z,1019.55
2019-02-04T00:22:20.701Z,1019.54
2019-02-04T00:23:20.743Z,1019.58
2019-02-04T00:25:13.718Z,1019.57
2019-02-04T00:26:13.765Z,1019.60
2019-02-04T00:28:06.734Z,1019.64
2019-02-04T00:29:06.786Z,1019.59
2019-02-04T00:30:59.766Z,1019.63
2019-02-04T00:31:59.814Z,1019.58
2019-02-04T00:33:52.800Z,1019.58
2019-02-04T00:34:52.852Z,1019.59
2019-02-04T00:36:45.828Z,1019.58
2019-02-04T00:37:45.872Z,1019.58
2019-02-04T00:39:38.866Z,1019.60
2019-02-04T00:40:38.927Z,1019.57
2019-02-04T00:42:31.898Z,1019.56
2019-02-04T00:43:31.950Z,1019.61
2019-02-04T00:45:24.918Z,1019.65
2019-02-04T00:46:24.962Z,1019.64
2019-02-04T00:48:17.932Z,1019.66
2019-02-04T00:49:17.983Z,1019.66
2019-02-04T00:51:10.971Z,1019.68
2019-02-04T00:52:11.019Z,1019.72
2019-02-04T00:54:03.996Z,1019.72
2019-02-04T00:55:04.038Z,1019.76
2019-02-04T00:56:57.018Z,1019.80
2019-02-04T00:57:57.053Z,1019.80
2019-02-04T00:59:50.024Z,1019.90
2019-02-04T01:00:50.166Z,1019.88
2019-02-04T01:02:43.077Z,1019.89
2019-02-04T01:03:43.127Z,1019.90
2019-02-04T01:05:36.110Z,1019.89
2019-02-04T01:06:36.152Z,1019.90
2019-02-04T01:08:29.130Z,1019.88
2019-02-04T01:09:29.192Z,1019.85
2019-02-04T01:11:22.214Z,1019.84
2019-02-04T01:12:22.204Z,1019.85
2019-02-04T01:14:15.236Z,1019.89
2019-02-04T01:15:15.227Z,1019.89
2019-02-04T01:17:08.201Z,1019.90
2019-02-04T01:18:08.248Z,1019.94
2019-02-04T01:20:01.221Z,1020.00
2019-02-04T01:21:01.276Z,1019.97
2019-02-04T01:22:54.258Z,1019.99
2019-02-04T01:23:54.304Z,1019.97
2019-02-04T01:25:47.283Z,1020.01
2019-02-04T01:26:47.323Z,1020.02
2019-02-04T01:28:40.297Z,1020.02
2019-02-04T01:29:40.350Z,1020.01
2019-02-04T01:31:33.849Z,1019.96
2019-02-04T01:32:33.879Z,1019.95
2019-02-04T01:34:26.854Z,1019.96
2019-02-04T01:35:26.909Z,1019.99
2019-02-04T01:37:19.883Z,1019.98
2019-02-04T01:38:19.928Z,1019.97
2019-02-04T01:40:12.916Z,1020.04
2019-02-04T01:41:12.948Z,1020.05
2019-02-04T01:43:05.926Z,1020.06
2019-02-04T01:44:05.971Z,1020.08
2019-02-04T01:45:58.955Z,1020.13
2019-02-04T01:46:59.001Z,1020.10
2019-02-04T01:48:51.977Z,1020.14
2019-02-04T01:49:52.024Z,1020.09
2019-02-04T01:51:44.999Z,1020.16
2019-02-04T01:52:45.042Z,1020.16
2019-02-04T01:54:38.011Z,1020.16
2019-02-04T01:55:38.067Z,1020.16
2019-02-04T01:57:31.049Z,1020.14
2019-02-04T01:58:31.092Z,1020.20
2019-02-04T02:00:24.064Z,1020.23
2019-02-04T02:01:24.138Z,1020.19
2019-02-04T02:03:17.126Z,1020.21
2019-02-04T02:04:17.163Z,1020.22
2019-02-04T02:06:10.155Z,1020.19
2019-02-04T02:07:10.213Z,1020.22
2019-02-04T02:09:03.188Z,1020.21
2019-02-04T02:10:03.226Z,1020.18
2019-02-04T02:11:56.204Z,1020.20
2019-02-04T02:12:56.246Z,1020.20
2019-02-04T02:14:49.223Z,1020.21
2019-02-04T02:15:49.270Z,1020.20
2019-02-04T02:17:42.245Z,1020.21
2019-02-04T02:18:42.290Z,1020.23
2019-02-04T02:20:35.281Z,1020.23
2019-02-04T02:21:35.335Z,1020.19
2019-02-04T02:23:28.309Z,1020.23
2019-02-04T02:24:28.354Z,1020.22
2019-02-04T02:26:21.330Z,1020.24
2019-02-04T02:27:21.387Z,1020.24
2019-02-04T02:29:14.369Z,1020.21
2019-02-04T02:30:14.419Z,1020.17
2019-02-04T02:32:07.923Z,1020.13
2019-02-04T02:33:07.967Z,1020.12
2019-02-04T02:35:00.927Z,1020.09
2019-02-04T02:36:00.970Z,1020.08
2019-02-04T02:37:53.955Z,1020.08
2019-02-04T02:38:53.995Z,1020.13
2019-02-04T02:40:46.989Z,1020.13
2019-02-04T02:41:47.021Z,1020.16
2019-02-04T02:43:39.999Z,1020.12
2019-02-04T02:44:40.355Z,1020.15
2019-02-04T02:46:33.014Z,1020.15
2019-02-04T02:47:38.418Z,1020.12
2019-02-04T02:49:26.062Z,1020.06
2019-02-04T02:50:26.083Z,1020.09
2019-02-04T02:52:19.075Z,1020.12
2019-02-04T02:53:19.115Z,1020.10
2019-02-04T02:55:12.074Z,1020.10
2019-02-04T02:56:12.129Z,1020.12
2019-02-04T02:58:05.136Z,1020.13
2019-02-04T02:59:05.149Z,1020.12
2019-02-04T03:00:58.150Z,1020.10
2019-02-04T03:01:58.182Z,1020.16
2019-02-04T03:03:51.166Z,1020.16
2019-02-04T03:04:51.220Z,1020.16
2019-02-04T03:06:44.178Z,1020.15
2019-02-04T03:07:44.228Z,1020.17
2019-02-04T03:09:37.216Z,1020.18
2019-02-04T03:10:37.251Z,1020.20
2019-02-04T03:12:30.224Z,1020.22
2019-02-04T03:13:30.279Z,1020.24
2019-02-04T03:15:23.248Z,1020.27
2019-02-04T03:16:23.291Z,1020.30
2019-02-04T03:18:16.274Z,1020.27
2019-02-04T03:19:16.319Z,1020.36
2019-02-04T03:21:09.290Z,1020.33
2019-02-04T03:22:09.338Z,1020.37
2019-02-04T03:24:02.347Z,1020.35
2019-02-04T03:25:02.364Z,1020.33
2019-02-04T03:26:55.333Z,1020.35
2019-02-04T03:27:55.383Z,1020.32
2019-02-04T03:29:48.360Z,1020.31
2019-02-04T03:30:48.423Z,1020.35
2019-02-04T03:32:41.389Z,1020.38
2019-02-04T03:33:41.439Z,1020.38
2019-02-04T03:35:34.402Z,1020.35
2019-02-04T03:36:34.453Z,1020.38
2019-02-04T03:38:27.435Z,1020.36
2019-02-04T03:39:27.474Z,1020.36
2019-02-04T03:41:20.438Z,1020.39
2019-02-04T03:42:20.492Z,1020.37
2019-02-04T03:44:13.488Z,1020.34
2019-02-04T03:45:13.520Z,1020.35
2019-02-04T03:47:06.492Z,1020.33
2019-02-04T03:48:09.121Z,1020.31
2019-02-04T03:49:59.520Z,1020.29
2019-02-04T03:50:59.563Z,1020.27
2019-02-04T03:52:52.550Z,1020.33
2019-02-04T03:53:52.595Z,1020.28
2019-02-04T03:55:45.575Z,1020.38
2019-02-04T03:56:45.633Z,1020.36
2019-02-04T03:58:38.598Z,1020.36
2019-02-04T03:59:38.647Z,1020.35
2019-02-04T04:01:31.611Z,1020.43
2019-02-04T04:02:31.661Z,1020.39
2019-02-04T04:04:24.650Z,1020.42
2019-02-04T04:05:24.693Z,1020.44
2019-02-04T04:07:17.663Z,1020.45
2019-02-04T04:08:17.715Z,1020.46
2019-02-04T04:10:10.685Z,1020.44
2019-02-04T04:11:10.731Z,1020.45
2019-02-04T04:13:03.709Z,1020.41
2019-02-04T04:14:03.753Z,1020.41
2019-02-04T04:15:56.724Z,1020.36
2019-02-04T04:16:56.777Z,1020.34
2019-02-04T04:18:49.762Z,1020.33
2019-02-04T04:19:49.809Z,1020.31
2019-02-04T04:21:42.779Z,1020.25
2019-02-04T04:22:42.831Z,1020.23
2019-02-04T04:24:35.813Z,1020.30
2019-02-04T04:25:35.860Z,1020.26
2019-02-04T04:27:28.830Z,1020.30
2019-02-04T04:28:28.880Z,1020.28
2019-02-04T04:30:21.959Z,1020.25
2019-02-04T04:31:21.904Z,1020.22
2019-02-04T04:33:14.870Z,1020.22
2019-02-04T04:34:14.919Z,1020.16
2019-02-04T04:36:07.888Z,1020.17
2019-02-04T04:37:07.939Z,1020.16
2019-02-04T04:39:00.919Z,1020.15
2019-02-04T04:40:00.970Z,1020.18
2019-02-04T04:41:53.946Z,1020.18
2019-02-04T04:42:53.998Z,1020.16
2019-02-04T04:44:46.972Z,1020.13
2019-02-04T04:45:47.010Z,1020.14
2019-02-04T04:47:39.982Z,1020.10
2019-02-04T04:48:40.034Z,1020.08
2019-02-04T04:50:33.006Z,1020.11
2019-02-04T04:51:33.052Z,1020.14
2019-02-04T04:53:26.027Z,1020.18
2019-02-04T04:54:26.080Z,1020.15
2019-02-04T04:56:19.055Z,1020.14
2019-02-04T04:57:19.103Z,1020.13
2019-02-04T04:59:12.075Z,1020.16
2019-02-04T05:00:12.122Z,1020.12
2019-02-04T05:02:05.122Z,1020.13
2019-02-04T05:03:05.155Z,1020.14
2019-02-04T05:04:58.130Z,1020.13
2019-02-04T05:05:58.177Z,1020.09
2019-02-04T05:07:51.147Z,1020.06
2019-02-04T05:08:51.200Z,1020.07
2019-02-04T05:10:44.172Z,1020.09
2019-02-04T05:11:44.222Z,1020.10
2019-02-04T05:13:37.205Z,1020.10
2019-02-04T05:14:37.244Z,1020.06
2019-02-04T05:16:30.223Z,1020.03
2019-02-04T05:17:30.266Z,1020.05
2019-02-04T05:19:23.252Z,1020.06
2019-02-04T05:20:23.297Z,1020.08
2019-02-04T05:22:16.370Z,1020.12
2019-02-04T05:23:17.324Z,1020.11
2019-02-04T05:25:09.292Z,1020.15
2019-02-04T05:26:09.357Z,1020.14
2019-02-04T05:28:02.333Z,1020.16
2019-02-04T05:29:02.354Z,1020.21
2019-02-04T05:30:55.336Z,1020.22
2019-02-04T05:31:55.376Z,1020.20
2019-02-04T05:33:48.349Z,1020.17
2019-02-04T05:34:48.404Z,1020.17
2019-02-04T05:36:41.401Z,1020.18
2019-02-04T05:37:41.437Z,1020.18
2019-02-04T05:39:34.423Z,1020.24
2019-02-04T05:40:34.469Z,1020.30
2019-02-04T05:42:27.443Z,1020.34
2019-02-04T05:43:27.499Z,1020.32
2019-02-04T05:45:20.471Z,1020.31
2019-02-04T05:46:20.521Z,1020.25
2019-02-04T05:48:13.490Z,1020.26
2019-02-04T05:49:13.539Z,1020.26
2019-02-04T05:51:06.525Z,1020.30
2019-02-04T05:52:06.571Z,1020.31
2019-02-04T05:53:59.546Z,1020.33
2019-02-04T05:54:59.595Z,1020.30
2019-02-04T05:56:52.580Z,1020.34
2019-02-04T05:57:52.622Z,1020.34
2019-02-04T05:59:45.609Z,1020.35
2019-02-04T06:00:45.652Z,1020.33
2019-02-04T06:02:38.615Z,1020.34
2019-02-04T06:03:38.664Z,1020.36
2019-02-04T06:05:31.679Z,1020.33
2019-02-04T06:06:31.733Z,1020.33
2019-02-04T06:08:24.722Z,1020.36
2019-02-04T06:09:24.745Z,1020.33
2019-02-04T06:11:17.742Z,1020.38
2019-02-04T06:12:17.784Z,1020.40
2019-02-04T06:14:10.751Z,1020.39
2019-02-04T06:15:10.826Z,1020.40
2019-02-04T06:17:03.789Z,1020.42
2019-02-04T06:18:03.829Z,1020.40
2019-02-04T06:19:56.803Z,1020.38
2019-02-04T06:20:56.847Z,1020.34
2019-02-04T06:22:49.823Z,1020.35
2019-02-04T06:23:49.877Z,1020.32
2019-02-04T06:25:42.845Z,1020.27
2019-02-04T06:26:42.893Z,1020.29
2019-02-04T06:28:35.856Z,1020.24
2019-02-04T06:29:35.927Z,1020.21
2019-02-04T06:31:28.923Z,1020.17
2019-02-04T06:32:28.967Z,1020.21
2019-02-04T06:34:21.950Z,1020.21
2019-02-04T06:35:21.999Z,1020.16
2019-02-04T06:37:14.972Z,1020.22
2019-02-04T06:38:15.019Z,1020.17
2019-02-04T06:40:08.021Z,1020.17
2019-02-04T06:41:08.072Z,1020.19
2019-02-04T06:43:01.015Z,1020.19
2019-02-04T06:44:01.066Z,1020.20
2019-02-04T06:45:54.043Z,1020.20
2019-02-04T06:46:54.104Z,1020.20
2019-02-04T06:48:47.056Z,1020.17
2019-02-04T06:49:47.109Z,1020.19
2019-02-04T06:51:40.080Z,1020.14
2019-02-04T06:52:40.129Z,1020.17
2019-02-04T06:54:33.098Z,1020.14
2019-02-04T06:55:33.150Z,1020.20
2019-02-04T06:57:26.139Z,1020.18
2019-02-04T06:58:26.188Z,1020.21
2019-02-04T07:00:19.166Z,1020.21
2019-02-04T07:01:19.199Z,1020.20
2019-02-04T07:03:12.187Z,1020.20
2019-02-04T07:04:12.227Z,1020.20
2019-02-04T07:06:05.200Z,1020.22
2019-02-04T07:07:05.246Z,1020.24
2019-02-04T07:08:58.215Z,1020.21
2019-02-04T07:09:58.265Z,1020.23
2019-02-04T07:11:51.257Z,1020.27
2019-02-04T07:12:51.302Z,1020.26
2019-02-04T07:14:44.276Z,1020.25
2019-02-04T07:15:44.339Z,1020.26
2019-02-04T07:17:37.309Z,1020.24
2019-02-04T07:18:37.358Z,1020.24
2019-02-04T07:20:30.324Z,1020.22
2019-02-04T07:21:30.464Z,1020.23
2019-02-04T07:23:23.384Z,1020.23
2019-02-04T07:24:23.431Z,1020.20
2019-02-04T07:26:16.408Z,1020.23
2019-02-04T07:27:16.456Z,1020.23
2019-02-04T07:29:09.422Z,1020.25
2019-02-04T07:30:09.471Z,1020.21
2019-02-04T07:32:02.970Z,1020.25
2019-02-04T07:33:03.006Z,1020.25
2019-02-04T07:34:55.976Z,1020.22
2019-02-04T07:35:56.031Z,1020.19
2019-02-04T07:37:49.022Z,1020.14
2019-02-04T07:38:49.045Z,1020.14
2019-02-04T07:40:42.028Z,1020.12
2019-02-04T07:41:42.087Z,1020.11
2019-02-04T07:43:35.054Z,1020.10
2019-02-04T07:44:35.098Z,1020.07
2019-02-04T07:46:28.085Z,1020.12
2019-02-04T07:47:28.121Z,1020.10
2019-02-04T07:49:21.091Z,1020.11
2019-02-04T07:50:21.146Z,1020.11
2019-02-04T07:52:14.135Z,1020.09
2019-02-04T07:53:14.202Z,1020.04
2019-02-04T07:55:07.143Z,1020.07
2019-02-04T07:56:07.187Z,1020.05
2019-02-04T07:58:00.157Z,1020.02
2019-02-04T07:59:00.227Z,1020.06
2019-02-04T08:00:53.192Z,1020.13
2019-02-04T08:01:53.248Z,1020.11
2019-02-04T08:03:46.215Z,1020.13
2019-02-04T08:04:46.273Z,1020.11
2019-02-04T08:06:39.268Z,1020.14
2019-02-04T08:07:39.315Z,1020.14
2019-02-04T08:09:32.286Z,1020.25
2019-02-04T08:10:32.343Z,1020.22
2019-02-04T08:12:25.370Z,1020.24
2019-02-04T08:13:25.363Z,1020.23
2019-02-04T08:15:18.335Z,1020.27
2019-02-04T08:16:18.388Z,1020.29
2019-02-04T08:18:11.374Z,1020.26
2019-02-04T08:19:11.441Z,1020.34
2019-02-04T08:21:04.389Z,1020.39
2019-02-04T08:22:04.443Z,1020.45
2019-02-04T08:23:57.417Z,1020.39
2019-02-04T08:24:57.461Z,1020.43
2019-02-04T08:26:50.453Z,1020.39
2019-02-04T08:27:50.486Z,1020.33
2019-02-04T08:29:43.520Z,1020.32
2019-02-04T08:30:43.516Z,1020.34
2019-02-04T08:32:37.010Z,1020.33
2019-02-04T08:33:37.040Z,1020.32
2019-02-04T08:35:30.069Z,1020.35
2019-02-04T08:36:30.094Z,1020.32
2019-02-04T08:38:23.044Z,1020.37
2019-02-04T08:39:23.088Z,1020.38
2019-02-04T08:41:16.116Z,1020.33
2019-02-04T08:42:16.115Z,1020.32
2019-02-04T08:44:09.132Z,1020.29
2019-02-04T08:45:09.140Z,1020.30
2019-02-04T08:47:02.154Z,1020.28
2019-02-04T08:48:02.183Z,1020.27
2019-02-04T08:49:58.350Z,1020.23
2019-02-04T08:50:55.203Z,1020.24
2019-02-04T08:52:48.184Z,1020.23
2019-02-04T08:53:48.227Z,1020.19
2019-02-04T08:55:41.279Z,1020.18
2019-02-04T08:56:43.111Z,1020.15
2019-02-04T08:58:34.236Z,1020.12
2019-02-04T08:59:34.276Z,1020.14
2019-02-04T09:01:27.260Z,1020.09
2019-02-04T09:02:27.319Z,1020.07
2019-02-04T09:04:20.530Z,1020.05
2019-02-04T09:05:20.376Z,1020.05
2019-02-04T09:07:13.351Z,1020.04
2019-02-04T09:08:13.357Z,1020.06
2019-02-04T09:10:06.368Z,1020.04
2019-02-04T09:11:06.456Z,1020.06
2019-02-04T09:12:59.463Z,1020.03
2019-02-04T09:13:59.427Z,1020.05
2019-02-04T09:15:52.527Z,1020.03
2019-02-04T09:16:52.455Z,1020.04
2019-02-04T09:18:45.501Z,1020.08
2019-02-04T09:19:45.482Z,1020.04
2019-02-04T09:21:38.467Z,1020.06
2019-02-04T09:22:38.516Z,1020.04
2019-02-04T09:24:31.542Z,1020.03
2019-02-04T09:25:31.559Z,1019.99
2019-02-04T09:27:24.527Z,1019.98
2019-02-04T09:28:24.589Z,1019.95
2019-02-04T09:30:17.589Z,1019.99
2019-02-04T09:31:17.636Z,1019.96
2019-02-04T09:33:10.638Z,1019.95
2019-02-04T09:34:10.675Z,1019.93
2019-02-04T09:36:03.672Z,1019.91
2019-02-04T09:37:03.686Z,1019.91
2019-02-04T09:38:56.677Z,1019.88
2019-02-04T09:39:56.743Z,1019.86
2019-02-04T09:41:49.688Z,1019.87
2019-02-04T09:42:49.744Z,1019.81
2019-02-04T09:44:42.744Z,1019.76
2019-02-04T09:45:42.850Z,1019.79
2019-02-04T09:47:35.746Z,1019.70
2019-02-04T09:48:35.809Z,1019.77
2019-02-04T09:50:28.801Z,1019.69
2019-02-04T09:51:28.835Z,1019.75
2019-02-04T09:53:21.842Z,1019.75
2019-02-04T09:54:21.911Z,1019.68
2019-02-04T09:56:14.864Z,1019.70
2019-02-04T09:57:14.876Z,1019.71
2019-02-04T09:59:07.926Z,1019.71
2019-02-04T10:00:07.919Z,1019.70
2019-02-04T10:02:00.943Z,1019.67
2019-02-04T10:03:00.967Z,1019.63
2019-02-04T10:04:53.957Z,1019.61
2019-02-04T10:05:53.994Z,1019.62
2019-02-04T10:07:46.991Z,1019.58
2019-02-04T10:08:47.041Z,1019.61
2019-02-04T10:10:40.017Z,1019.59
2019-02-04T10:11:40.059Z,1019.60
2019-02-04T10:13:33.015Z,1019.60
2019-02-04T10:14:33.094Z,1019.63
2019-02-04T10:16:26.106Z,1019.67
2019-02-04T10:17:26.151Z,1019.67
2019-02-04T10:19:19.119Z,1019.67
2019-02-04T10:20:19.190Z,1019.67
2019-02-04T10:22:12.129Z,1019.64
2019-02-04T10:23:12.237Z,1019.62
2019-02-04T10:25:05.169Z,1019.65
2019-02-04T10:26:05.304Z,1019.67
2019-02-04T10:27:58.203Z,1019.64
2019-02-04T10:28:58.315Z,1019.63
2019-02-04T10:30:51.260Z,1019.61
2019-02-04T10:31:51.305Z,1019.61
2019-02-04T10:33:44.302Z,1019.61
2019-02-04T10:34:44.325Z,1019.62
2019-02-04T10:36:37.315Z,1019.60
2019-02-04T10:37:37.360Z,1019.59
2019-02-04T10:39:30.360Z,1019.55
2019-02-04T10:40:30.433Z,1019.59
2019-02-04T10:42:23.380Z,1019.51
2019-02-04T10:43:23.440Z,1019.52
2019-02-04T10:45:16.417Z,1019.47
2019-02-04T10:46:16.451Z,1019.47
2019-02-04T10:48:09.464Z,1019.47
2019-02-04T10:49:09.491Z,1019.44
2019-02-04T10:51:02.535Z,1019.40
2019-02-04T10:52:02.553Z,1019.40
2019-02-04T10:53:55.493Z,1019.38
2019-02-04T10:54:55.747Z,1019.42
2019-02-04T10:56:48.573Z,1019.31
2019-02-04T10:57:48.579Z,1019.38
2019-02-04T10:59:41.602Z,1019.32
2019-02-04T11:00:41.643Z,1019.28
2019-02-04T11:02:34.650Z,1019.27
2019-02-04T11:03:34.692Z,1019.29
2019-02-04T11:05:27.612Z,1019.28
2019-02-04T11:06:27.706Z,1019.26
2019-02-04T11:08:20.646Z,1019.27
2019-02-04T11:09:20.691Z,1019.28
2019-02-04T11:11:13.672Z,1019.24
2019-02-04T11:12:13.746Z,1019.27
2019-02-04T11:14:06.740Z,1019.18
2019-02-04T11:15:06.792Z,1019.23
2019-02-04T11:16:59.747Z,1019.23
2019-02-04T11:17:59.827Z,1019.21
2019-02-04T11:19:52.828Z,1019.21
2019-02-04T11:20:58.076Z,1019.26
2019-02-04T11:22:45.816Z,1019.23
2019-02-04T11:23:45.838Z,1019.20
2019-02-04T11:25:38.854Z,1019.17
2019-02-04T11:26:38.860Z,1019.19
2019-02-04T11:28:31.847Z,1019.23
2019-02-04T11:29:31.897Z,1019.21
2019-02-04T11:31:24.920Z,1019.21
2019-02-04T11:32:24.999Z,1019.17
2019-02-04T11:34:17.930Z,1019.22
2019-02-04T11:35:17.975Z,1019.22
2019-02-04T11:37:10.950Z,1019.22
2019-02-04T11:38:10.972Z,1019.23
2019-02-04T11:40:03.969Z,1019.21
2019-02-04T11:41:04.030Z,1019.21
2019-02-04T11:42:56.979Z,1019.16
2019-02-04T11:43:57.029Z,1019.15
2019-02-04T11:45:50.045Z,1019.19
2019-02-04T11:46:50.067Z,1019.17
2019-02-04T11:48:43.066Z,1019.13
2019-02-04T11:49:43.118Z,1019.13
2019-02-04T11:51:36.208Z,1019.17
2019-02-04T11:52:36.148Z,1019.06
2019-02-04T11:54:29.120Z,1019.12
2019-02-04T11:55:29.166Z,1019.09
2019-02-04T11:57:22.156Z,1019.08
2019-02-04T11:58:22.222Z,1019.09
2019-02-04T12:00:15.183Z,1019.11
2019-02-04T12:01:15.236Z,1019.00
2019-02-04T12:03:08.230Z,1018.98
2019-02-04T12:04:08.281Z,1018.96
2019-02-04T12:06:01.247Z,1018.95
2019-02-04T12:07:01.303Z,1018.94
2019-02-04T12:08:54.359Z,1018.91
2019-02-04T12:09:54.369Z,1018.88
2019-02-04T12:11:47.321Z,1018.84
2019-02-04T12:12:47.381Z,1018.83
2019-02-04T12:14:40.359Z,1018.79
2019-02-04T12:15:40.436Z,1018.76
2019-02-04T12:17:33.429Z,1018.75
2019-02-04T12:18:33.450Z,1018.69
2019-02-04T12:20:26.510Z,1018.63
2019-02-04T12:21:26.563Z,1018.66
2019-02-04T12:23:19.560Z,1018.71
2019-02-04T12:24:19.584Z,1018.67
2019-02-04T12:26:12.507Z,1018.69
2019-02-04T12:27:12.566Z,1018.71
2019-02-04T12:29:05.536Z,1018.72
2019-02-04T12:30:05.616Z,1018.71
2019-02-04T12:32:00.066Z,1018.69
2019-02-04T12:33:00.115Z,1018.72
2019-02-04T12:34:53.102Z,1018.74
2019-02-04T12:35:53.142Z,1018.75
2019-02-04T12:37:46.127Z,1018.69
2019-02-04T12:38:46.170Z,1018.74
2019-02-04T12:40:39.182Z,1018.67
2019-02-04T12:41:39.200Z,1018.67
2019-02-04T12:43:32.203Z,1018.65
2019-02-04T12:44:32.228Z,1018.58
2019-02-04T12:46:25.224Z,1018.61
2019-02-04T12:47:25.363Z,1018.55
2019-02-04T12:49:20.088Z,1018.56
2019-02-04T12:50:18.310Z,1018.60
2019-02-04T12:52:11.341Z,1018.61
2019-02-04T12:53:11.411Z,1018.56
2019-02-04T12:55:04.364Z,1018.55
2019-02-04T12:56:04.413Z,1018.52
2019-02-04T12:57:57.441Z,1018.61
2019-02-04T12:58:57.433Z,1018.51
2019-02-04T13:00:50.421Z,1018.51
2019-02-04T13:01:50.496Z,1018.59
2019-02-04T13:03:43.456Z,1018.54
2019-02-04T13:04:43.501Z,1018.55
2019-02-04T13:06:36.473Z,1018.58
2019-02-04T13:07:36.548Z,1018.50
2019-02-04T13:09:29.514Z,1018.51
2019-02-04T13:10:29.554Z,1018.53
2019-02-04T13:12:22.596Z,1018.46
2019-02-04T13:13:22.620Z,1018.46
2019-02-04T13:15:15.585Z,1018.47
2019-02-04T13:16:15.629Z,1018.47
2019-02-04T13:18:08.618Z,1018.44
2019-02-04T13:19:08.660Z,1018.43
2019-02-04T13:21:01.633Z,1018.38
2019-02-04T13:22:01.700Z,1018.45
2019-02-04T13:23:54.670Z,1018.33
2019-02-04T13:24:54.740Z,1018.36
2019-02-04T13:26:47.712Z,1018.33
2019-02-04T13:27:47.786Z,1018.37
2019-02-04T13:29:40.771Z,1018.33
2019-02-04T13:30:40.818Z,1018.33
2019-02-04T13:32:34.342Z,1018.26
2019-02-04T13:33:34.365Z,1018.24
2019-02-04T13:35:27.357Z,1018.29
2019-02-04T13:36:27.383Z,1018.28
2019-02-04T13:38:20.394Z,1018.23
2019-02-04T13:39:20.427Z,1018.24
2019-02-04T13:41:13.388Z,1018.22
2019-02-04T13:42:13.439Z,1018.29
2019-02-04T13:44:06.433Z,1018.21
2019-02-04T13:45:06.486Z,1018.16
2019-02-04T13:46:59.450Z,1018.21
2019-02-04T13:47:59.503Z,1018.20
2019-02-04T13:49:52.501Z,1018.10
2019-02-04T13:50:52.594Z,1018.14
2019-02-04T13:52:45.514Z,1018.15
2019-02-04T13:53:45.575Z,1018.16
2019-02-04T13:55:38.567Z,1018.13
2019-02-04T13:56:38.635Z,1018.14
2019-02-04T13:58:31.586Z,1018.13
2019-02-04T13:59:31.680Z,1018.13
2019-02-04T14:01:24.624Z,1018.12
2019-02-04T14:02:24.692Z,1018.09
2019-02-04T14:04:17.700Z,1018.09
2019-02-04T14:05:17.687Z,1018.09
2019-02-04T14:07:10.666Z,1018.02
2019-02-04T14:08:10.720Z,1017.98
2019-02-04T14:10:03.699Z,1018.02
2019-02-04T14:11:03.774Z,1018.07
2019-02-04T14:12:56.750Z,1017.98
2019-02-04T14:13:56.776Z,1018.00
2019-02-04T14:15:49.789Z,1017.96
2019-02-04T14:16:49.806Z,1017.93
2019-02-04T14:18:42.792Z,1018.01
2019-02-04T14:19:42.912Z,1017.94
2019-02-04T14:21:35.832Z,1017.88
2019-02-04T14:22:35.901Z,1017.89
2019-02-04T14:24:28.854Z,1017.83
2019-02-04T14:25:28.921Z,1017.79
2019-02-04T14:27:21.949Z,1017.79
2019-02-04T14:28:21.945Z,1017.82
2019-02-04T14:30:14.932Z,1017.79
2019-02-04T14:31:15.003Z,1017.82
2019-02-04T14:33:07.958Z,1017.83
2019-02-04T14:34:08.064Z,1017.83
2019-02-04T14:36:00.996Z,1017.80
2019-02-04T14:37:01.053Z,1017.82
2019-02-04T14:38:54.056Z,1017.80
2019-02-04T14:39:54.107Z,1017.83
2019-02-04T14:41:47.086Z,1017.78
2019-02-04T14:42:47.134Z,1017.80
2019-02-04T14:44:40.112Z,1017.75
2019-02-04T14:45:43.071Z,1017.74
2019-02-04T14:47:33.135Z,1017.70
2019-02-04T14:48:33.197Z,1017.68
2019-02-04T14:50:26.177Z,1017.67
2019-02-04T14:51:26.216Z,1017.69
2019-02-04T14:53:19.191Z,1017.69
2019-02-04T14:54:19.248Z,1017.67
2019-02-04T14:56:12.236Z,1017.62
2019-02-04T14:57:12.280Z,1017.62
2019-02-04T14:59:05.251Z,1017.65
2019-02-04T15:00:05.315Z,1017.60
2019-02-04T15:01:58.283Z,1017.64
2019-02-04T15:02:58.331Z,1017.63
2019-02-04T15:04:51.321Z,1017.59
2019-02-04T15:05:51.407Z,1017.57
2019-02-04T15:07:44.335Z,1017.62
2019-02-04T15:08:44.407Z,1017.54
2019-02-04T15:10:37.393Z,1017.58
2019-02-04T15:11:37.445Z,1017.57
2019-02-04T15:13:30.413Z,1017.56
2019-02-04T15:14:30.462Z,1017.56
2019-02-04T15:16:23.443Z,1017.46
2019-02-04T15:17:23.506Z,1017.45
2019-02-04T15:19:16.470Z,1017.43
2019-02-04T15:20:16.571Z,1017.44
2019-02-04T15:22:09.504Z,1017.41
2019-02-04T15:23:09.552Z,1017.42
2019-02-04T15:25:02.532Z,1017.38
2019-02-04T15:26:02.581Z,1017.36
2019-02-04T15:27:55.580Z,1017.34
2019-02-04T15:28:55.628Z,1017.30
2019-02-04T15:30:48.617Z,1017.26
2019-02-04T15:31:48.659Z,1017.30
2019-02-04T15:33:41.637Z,1017.28
2019-02-04T15:34:41.690Z,1017.20
2019-02-04T15:36:34.689Z,1017.16
2019-02-04T15:37:34.718Z,1017.18
2019-02-04T15:39:27.693Z,1017.16
2019-02-04T15:40:27.805Z,1017.12
2019-02-04T15:42:31.663Z,1017.14
2019-02-04T15:43:20.773Z,1017.10
2019-02-04T15:45:13.750Z,1017.12
2019-02-04T15:46:13.803Z,1017.13
2019-02-04T15:48:06.786Z,1017.15
2019-02-04T15:49:06.832Z,1017.19
2019-02-04T15:50:59.821Z,1017.12
2019-02-04T15:51:59.878Z,1017.17
2019-02-04T15:53:52.836Z,1017.04
2019-02-04T15:54:52.886Z,1017.11
2019-02-04T15:56:45.866Z,1017.14
2019-02-04T15:57:45.922Z,1017.15
2019-02-04T15:59:38.914Z,1017.08
2019-02-04T16:00:38.970Z,1017.12
2019-02-04T16:02:31.969Z,1017.12
2019-02-04T16:03:32.001Z,1017.10
2019-02-04T16:05:24.986Z,1017.15
2019-02-04T16:06:25.033Z,1017.13
2019-02-04T16:08:18.041Z,1017.12
2019-02-04T16:09:18.067Z,1017.10
2019-02-04T16:11:11.053Z,1017.12
2019-02-04T16:12:11.102Z,1017.13
2019-02-04T16:14:04.087Z,1017.13
2019-02-04T16:15:04.133Z,1017.17
2019-02-04T16:16:57.629Z,1017.11
2019-02-04T16:17:57.169Z,1017.14
2019-02-04T16:19:53.303Z,1017.14
2019-02-04T16:20:50.196Z,1017.20
2019-02-04T16:22:43.182Z,1017.18
2019-02-04T16:23:43.231Z,1017.18
2019-02-04T16:25:36.217Z,1017.23
2019-02-04T16:26:36.255Z,1017.22
2019-02-04T16:28:29.254Z,1017.29
2019-02-04T16:29:29.408Z,1017.36
2019-02-04T16:31:22.273Z,1017.36
2019-02-04T16:32:22.420Z,1017.33
2019-02-04T16:34:15.305Z,1017.34
2019-02-04T16:35:15.349Z,1017.35
2019-02-04T16:37:08.331Z,1017.34
2019-02-04T16:38:08.378Z,1017.35
2019-02-04T16:40:01.353Z,1017.43
2019-02-04T16:41:01.403Z,1017.45
2019-02-04T16:42:54.387Z,1017.46
2019-02-04T16:43:54.432Z,1017.52
2019-02-04T16:45:47.402Z,1017.46
2019-02-04T16:46:47.467Z,1017.43
2019-02-04T16:48:40.452Z,1017.42
2019-02-04T16:49:40.495Z,1017.41
2019-02-04T16:51:33.507Z,1017.44
2019-02-04T16:52:33.526Z,1017.43
2019-02-04T16:54:26.507Z,1017.41
2019-02-04T16:55:26.579Z,1017.39
2019-02-04T16:57:19.529Z,1017.29
2019-02-04T16:58:19.574Z,1017.33
2019-02-04T17:00:12.549Z,1017.34
2019-02-04T17:01:12.614Z,1017.36
2019-02-04T17:03:05.589Z,1017.39
2019-02-04T17:04:05.635Z,1017.37
2019-02-04T17:05:58.622Z,1017.28
2019-02-04T17:06:58.673Z,1017.32
2019-02-04T17:08:51.708Z,1017.33
2019-02-04T17:09:51.700Z,1017.29
2019-02-04T17:11:44.676Z,1017.38
2019-02-04T17:12:44.726Z,1017.33
2019-02-04T17:14:37.725Z,1017.39
2019-02-04T17:15:37.767Z,1017.43
2019-02-04T17:17:30.740Z,1017.36
2019-02-04T17:18:30.787Z,1017.36
2019-02-04T17:20:23.764Z,1017.35
2019-02-04T17:21:23.820Z,1017.30
2019-02-04T17:23:22.414Z,1017.29
2019-02-04T17:24:16.856Z,1017.27
2019-02-04T17:26:09.807Z,1017.26